Derby, Mississippi
Current Conditions -  °F | °C
As of 12:35 PM on Friday 31 Oct 2014 (Local Time) from KBXA Reporting Station
NA  
Wind Chill: 74°   Ceiling: NA
Heat Index: 74°   Visibility: 10mi
Dew Point: 46°   Wind: 13mph
Humidity: 36%   Direction: 320°NW
Pressure: 30.04"   Gusts: 18mph
Location:  30.8781°N, 89.5858°W
Report Text: KBXA 311735Z AUTO 32011G16KT 10SM 24/08 A3004 RMK AO2 LTG DSNT SE T02350075
Loading
Personal Weather Stations






























Interactive Weather Map
Tropical Storm Tracking
New forecast layout! Learn more

10-Day Weather Forecast

Advertisements
Track Severe Weather on mobile